createdAt,value
2022-12-08T00:01:56.787Z,90.80
2022-12-08T00:04:25.110Z,90.92
2022-12-08T00:07:12.056Z,90.76
2022-12-08T00:09:42.237Z,90.80
2022-12-08T00:12:11.937Z,90.71
2022-12-08T00:14:45.375Z,90.65
2022-12-08T00:17:15.707Z,90.70
2022-12-08T00:19:44.489Z,90.65
2022-12-08T00:22:14.856Z,90.57
2022-12-08T00:24:47.509Z,90.68
2022-12-08T00:27:16.291Z,90.66
2022-12-08T00:29:45.650Z,90.83
2022-12-08T00:32:14.354Z,90.73
2022-12-08T00:34:42.712Z,90.90
2022-12-08T00:37:10.911Z,90.94
2022-12-08T00:39:39.085Z,90.83
2022-12-08T00:42:13.499Z,90.99
2022-12-08T00:44:44.660Z,90.88
2022-12-08T00:47:13.989Z,90.89
2022-12-08T00:49:42.394Z,90.98
2022-12-08T00:52:10.648Z,91.01
2022-12-08T00:54:38.778Z,91.02
2022-12-08T00:57:07.129Z,90.96
2022-12-08T00:59:35.341Z,91.06
2022-12-08T01:02:03.538Z,91.07
2022-12-08T01:04:31.740Z,91.06
2022-12-08T01:06:59.877Z,91.06
2022-12-08T01:09:27.996Z,90.92
2022-12-08T01:11:56.291Z,90.81
2022-12-08T01:14:24.530Z,90.65
2022-12-08T01:16:52.945Z,90.64
2022-12-08T01:19:21.655Z,90.68
2022-12-08T01:21:49.748Z,90.73
2022-12-08T01:24:21.259Z,90.61
2022-12-08T01:26:50.851Z,90.51
2022-12-08T01:29:19.159Z,90.45
2022-12-08T01:31:47.355Z,90.50
2022-12-08T01:34:15.574Z,90.50
2022-12-08T01:36:44.571Z,90.59
2022-12-08T01:39:18.438Z,90.65
2022-12-08T01:41:47.773Z,90.59
2022-12-08T01:44:15.874Z,90.72
2022-12-08T01:46:45.857Z,90.65
2022-12-08T01:49:22.260Z,90.75
2022-12-08T01:52:02.565Z,90.86
2022-12-08T01:54:37.333Z,91.03
2022-12-08T01:57:18.816Z,91.17
2022-12-08T01:59:57.089Z,91.42
2022-12-08T02:02:31.292Z,91.35
2022-12-08T02:05:00.236Z,91.40
2022-12-08T02:07:28.494Z,91.66
2022-12-08T02:09:57.662Z,91.70
2022-12-08T02:12:25.968Z,91.76
2022-12-08T02:14:54.127Z,91.92
2022-12-08T02:17:40.897Z,92.03
2022-12-08T02:20:31.257Z,92.12
2022-12-08T02:23:14.145Z,92.24
2022-12-08T02:26:10.152Z,92.24
2022-12-08T02:28:48.244Z,92.18
2022-12-08T02:31:38.004Z,92.24
2022-12-08T02:34:18.854Z,92.30
2022-12-08T02:36:52.804Z,92.53
2022-12-08T02:39:35.989Z,92.58
2022-12-08T02:42:28.069Z,92.51
2022-12-08T02:45:20.584Z,92.43
2022-12-08T02:47:49.840Z,92.57
2022-12-08T02:50:18.983Z,92.54
2022-12-08T02:52:48.128Z,92.49
2022-12-08T02:55:28.458Z,92.54
2022-12-08T02:58:21.275Z,92.43
2022-12-08T03:01:13.390Z,92.45
2022-12-08T03:04:08.851Z,92.44
2022-12-08T03:06:54.596Z,92.36
2022-12-08T03:09:41.496Z,92.39
2022-12-08T03:12:23.548Z,92.37
2022-12-08T03:14:54.708Z,92.39
2022-12-08T03:17:26.660Z,92.48
2022-12-08T03:19:57.514Z,92.44
2022-12-08T03:22:27.869Z,92.43
2022-12-08T03:24:57.265Z,92.54
2022-12-08T03:27:29.653Z,92.62
2022-12-08T03:29:59.308Z,92.60
2022-12-08T03:32:34.617Z,92.55
2022-12-08T03:35:07.560Z,92.60
2022-12-08T03:37:40.006Z,92.63
2022-12-08T03:40:11.360Z,92.66
2022-12-08T03:42:39.601Z,92.76
2022-12-08T03:45:07.912Z,93.03
2022-12-08T03:47:36.818Z,93.00
2022-12-08T03:50:05.916Z,93.26
2022-12-08T03:52:34.200Z,93.42
2022-12-08T03:55:02.359Z,93.47
2022-12-08T03:57:30.744Z,93.61
2022-12-08T03:59:58.876Z,93.79
2022-12-08T04:02:27.072Z,93.76
2022-12-08T04:04:55.343Z,93.79
2022-12-08T04:07:23.542Z,93.76
2022-12-08T04:09:51.673Z,93.85
2022-12-08T04:12:19.872Z,93.90
2022-12-08T04:14:48.094Z,93.83
2022-12-08T04:17:16.346Z,93.90
2022-12-08T04:19:44.604Z,93.86
2022-12-08T04:22:12.757Z,93.83
2022-12-08T04:24:40.915Z,93.97
2022-12-08T04:27:09.081Z,93.99
2022-12-08T04:29:37.201Z,94.12
2022-12-08T04:32:05.675Z,94.03
2022-12-08T04:34:33.924Z,94.11
2022-12-08T04:37:02.076Z,94.07
2022-12-08T04:39:30.235Z,94.10
2022-12-08T04:41:58.640Z,94.13
2022-12-08T04:44:26.768Z,94.15
2022-12-08T04:46:56.048Z,94.12
2022-12-08T04:49:24.355Z,94.22
2022-12-08T04:51:52.596Z,94.15
2022-12-08T04:54:20.751Z,94.17
2022-12-08T04:56:48.995Z,94.19
2022-12-08T04:59:17.159Z,94.33
2022-12-08T05:01:45.372Z,94.23
2022-12-08T05:04:13.684Z,94.28
2022-12-08T05:06:41.943Z,94.30
2022-12-08T05:09:10.442Z,94.09
2022-12-08T05:11:48.317Z,94.20
2022-12-08T05:14:18.699Z,94.15
2022-12-08T05:16:47.975Z,93.89
2022-12-08T05:19:17.537Z,93.88
2022-12-08T05:21:45.704Z,93.77
2022-12-08T05:24:13.887Z,93.57
2022-12-08T05:26:41.933Z,93.58
2022-12-08T05:29:10.057Z,93.41
2022-12-08T05:31:38.338Z,93.47
2022-12-08T05:34:06.503Z,93.48
2022-12-08T05:36:34.782Z,93.42
2022-12-08T05:39:03.028Z,93.28
2022-12-08T05:41:31.348Z,93.42
2022-12-08T05:43:59.475Z,93.40
2022-12-08T05:46:27.729Z,93.35
2022-12-08T05:48:55.812Z,93.38
2022-12-08T05:51:24.521Z,93.30
2022-12-08T05:53:53.233Z,93.34
2022-12-08T05:56:21.902Z,93.45
2022-12-08T05:58:50.337Z,93.54
2022-12-08T06:01:28.179Z,93.54
2022-12-08T06:04:00.421Z,93.30
2022-12-08T06:06:29.568Z,93.34
2022-12-08T06:08:59.164Z,93.29
2022-12-08T06:11:29.867Z,93.35
2022-12-08T06:13:58.457Z,93.29
2022-12-08T06:16:28.635Z,93.23
2022-12-08T06:18:57.208Z,93.38
2022-12-08T06:21:25.470Z,93.44
2022-12-08T06:23:54.598Z,93.62
2022-12-08T06:26:22.957Z,93.70
2022-12-08T06:28:51.898Z,93.79
2022-12-08T06:31:25.445Z,93.95
2022-12-08T06:33:55.131Z,93.85
2022-12-08T06:36:26.285Z,93.95
2022-12-08T06:38:54.753Z,93.96
2022-12-08T06:41:23.125Z,93.94
2022-12-08T06:43:51.710Z,94.12
2022-12-08T06:46:20.432Z,94.29
2022-12-08T06:48:52.979Z,94.22
2022-12-08T06:51:23.648Z,94.43
2022-12-08T06:53:51.877Z,94.39
2022-12-08T06:56:20.575Z,94.53
2022-12-08T06:58:52.460Z,94.50
2022-12-08T07:01:21.843Z,94.81
2022-12-08T07:03:50.134Z,94.91
2022-12-08T07:06:23.414Z,95.18
2022-12-08T07:08:51.748Z,95.12
2022-12-08T07:11:22.327Z,95.17
2022-12-08T07:13:51.297Z,95.15
2022-12-08T07:16:19.673Z,95.18
2022-12-08T07:18:48.206Z,95.15
2022-12-08T07:21:17.976Z,95.01
2022-12-08T07:23:50.224Z,95.06
2022-12-08T07:26:22.515Z,95.18
2022-12-08T07:28:50.671Z,95.14
2022-12-08T07:31:22.509Z,95.17
2022-12-08T07:33:52.533Z,95.05
2022-12-08T07:36:21.883Z,94.98
2022-12-08T07:38:51.268Z,94.74
2022-12-08T07:41:23.637Z,94.58
2022-12-08T07:43:53.810Z,94.45
2022-12-08T07:46:24.795Z,94.40
2022-12-08T07:48:54.660Z,94.39
2022-12-08T07:51:25.128Z,94.29
2022-12-08T07:53:55.197Z,94.29
2022-12-08T07:56:24.171Z,94.18
2022-12-08T07:58:52.621Z,94.06
2022-12-08T08:01:26.020Z,93.79
2022-12-08T08:04:01.529Z,93.79
2022-12-08T08:06:31.396Z,93.70
2022-12-08T08:09:01.169Z,93.57
2022-12-08T08:11:30.897Z,93.53
2022-12-08T08:13:59.255Z,93.32
2022-12-08T08:16:28.506Z,93.39
2022-12-08T08:18:58.403Z,93.24
2022-12-08T08:21:45.194Z,93.23
2022-12-08T08:24:14.487Z,93.12
2022-12-08T08:26:42.724Z,92.89
2022-12-08T08:29:10.972Z,92.91
2022-12-08T08:31:39.463Z,92.83
2022-12-08T08:34:09.267Z,92.81
2022-12-08T08:36:37.728Z,92.93
2022-12-08T08:39:06.111Z,92.97
2022-12-08T08:41:35.523Z,92.55
2022-12-08T08:44:04.408Z,92.24
2022-12-08T08:46:33.255Z,92.55
2022-12-08T08:49:01.700Z,92.28
2022-12-08T08:51:32.881Z,92.15
2022-12-08T08:54:01.283Z,92.03
2022-12-08T08:56:30.687Z,92.02
2022-12-08T08:58:59.019Z,92.21
2022-12-08T09:01:28.584Z,92.06
2022-12-08T09:03:57.525Z,92.27
2022-12-08T09:06:28.224Z,92.32
2022-12-08T09:08:56.813Z,92.22
2022-12-08T09:11:25.150Z,92.11
2022-12-08T09:13:54.947Z,91.49
2022-12-08T09:16:23.990Z,91.35
2022-12-08T09:18:52.420Z,91.73
2022-12-08T09:21:23.839Z,91.80
2022-12-08T09:24:00.524Z,91.70
2022-12-08T09:26:31.975Z,91.31
2022-12-08T09:29:03.949Z,91.22
2022-12-08T09:31:33.888Z,91.13
2022-12-08T09:34:04.334Z,91.03
2022-12-08T09:36:35.105Z,90.44
2022-12-08T09:39:07.336Z,90.16
2022-12-08T09:41:51.892Z,89.68
2022-12-08T09:44:37.431Z,88.66
2022-12-08T09:47:38.607Z,87.23
2022-12-08T09:50:41.044Z,87.43
2022-12-08T09:53:21.793Z,87.09
2022-12-08T09:56:00.549Z,87.39
2022-12-08T09:58:50.509Z,87.32
2022-12-08T10:01:28.137Z,87.01
2022-12-08T10:03:59.668Z,86.48
2022-12-08T10:06:46.593Z,86.55
2022-12-08T10:09:31.092Z,85.97
2022-12-08T10:12:26.411Z,86.68
2022-12-08T10:15:25.605Z,86.88
2022-12-08T10:18:07.231Z,86.67
2022-12-08T10:20:47.820Z,86.43
2022-12-08T10:23:31.375Z,85.99
2022-12-08T10:26:26.153Z,85.66
2022-12-08T10:29:03.026Z,85.01
2022-12-08T10:31:42.362Z,84.23
2022-12-08T10:34:16.701Z,84.33
2022-12-08T10:36:56.429Z,84.68
2022-12-08T10:39:45.848Z,84.86
2022-12-08T10:42:14.259Z,84.65
2022-12-08T10:45:15.333Z,84.65
2022-12-08T10:48:03.048Z,84.45
2022-12-08T10:51:11.281Z,84.28
2022-12-08T10:54:03.206Z,84.12
2022-12-08T11:00:13.934Z,83.59
2022-12-08T11:06:19.000Z,83.41
2022-12-08T11:09:34.552Z,82.98
2022-12-08T11:12:18.015Z,82.84
2022-12-08T11:19:01.878Z,82.62
2022-12-08T11:22:03.096Z,82.85
2022-12-08T11:39:56.101Z,84.07
2022-12-08T11:43:43.764Z,83.80
2022-12-08T11:47:07.147Z,83.54
2022-12-08T12:02:18.158Z,83.67
2022-12-08T12:05:39.919Z,83.50
2022-12-08T12:13:54.233Z,83.78
2022-12-08T12:35:19.506Z,83.42
2022-12-08T12:43:41.841Z,82.92
2022-12-08T13:21:36.529Z,81.02
2022-12-08T13:24:54.657Z,81.35
2022-12-08T13:28:31.512Z,81.65
2022-12-08T13:32:28.341Z,81.93
2022-12-08T13:35:38.981Z,82.05
2022-12-08T13:43:04.216Z,82.43
2022-12-08T13:47:24.581Z,82.81
2022-12-08T13:58:35.887Z,83.84
2022-12-08T14:03:23.822Z,84.18
2022-12-08T14:10:13.329Z,84.76
2022-12-08T14:13:46.614Z,84.87
2022-12-08T14:20:17.029Z,85.13
2022-12-08T14:33:49.399Z,86.11
2022-12-08T14:36:43.747Z,86.33
2022-12-08T14:39:10.828Z,86.70
2022-12-08T14:41:38.841Z,86.76
2022-12-08T14:44:24.092Z,87.01
2022-12-08T14:47:10.260Z,87.12
2022-12-08T14:49:39.007Z,87.34
2022-12-08T14:52:10.897Z,87.40
2022-12-08T14:54:42.360Z,87.64
2022-12-08T14:57:14.432Z,87.79
2022-12-08T14:59:42.978Z,88.02
2022-12-08T15:02:12.813Z,88.12
2022-12-08T15:04:47.224Z,88.21
2022-12-08T15:07:17.509Z,88.27
2022-12-08T15:10:05.786Z,88.34
2022-12-08T15:12:32.918Z,88.58
2022-12-08T15:15:08.884Z,88.74
2022-12-08T15:17:48.605Z,88.84
2022-12-08T15:20:25.195Z,88.95
2022-12-08T15:22:55.724Z,89.03
2022-12-08T15:25:24.555Z,89.19
2022-12-08T15:27:56.473Z,89.24
2022-12-08T15:30:28.372Z,89.31
2022-12-08T15:32:55.812Z,89.38
2022-12-08T15:35:22.548Z,89.49
2022-12-08T15:37:49.418Z,89.45
2022-12-08T15:40:19.451Z,89.56
2022-12-08T15:42:46.444Z,89.60
2022-12-08T15:45:15.257Z,89.77
2022-12-08T15:47:43.821Z,89.84
2022-12-08T15:50:19.607Z,89.85
2022-12-08T15:52:46.904Z,89.93
2022-12-08T15:55:15.612Z,89.87
2022-12-08T15:58:51.934Z,90.01
2022-12-08T16:00:52.286Z,89.95
2022-12-08T16:07:12.351Z,90.04
2022-12-08T16:09:40.723Z,90.18
2022-12-08T16:13:26.874Z,90.37
2022-12-08T16:18:22.768Z,90.64
2022-12-08T16:23:44.892Z,90.81
2022-12-08T16:27:21.884Z,90.82
2022-12-08T16:29:19.804Z,90.83
2022-12-08T16:31:46.741Z,90.81
2022-12-08T16:34:14.012Z,90.80
2022-12-08T16:36:40.846Z,90.91
2022-12-08T16:39:09.893Z,90.98
2022-12-08T16:41:55.501Z,91.07
2022-12-08T16:44:22.216Z,91.04
2022-12-08T16:46:49.101Z,90.99
2022-12-08T16:49:15.984Z,91.05
2022-12-08T16:51:44.247Z,91.10
2022-12-08T16:54:11.342Z,91.09
2022-12-08T16:56:38.088Z,91.17
2022-12-08T16:59:04.830Z,91.20
2022-12-08T17:01:31.832Z,91.23
2022-12-08T17:04:29.805Z,91.21
2022-12-08T17:06:45.776Z,91.07
2022-12-08T17:09:12.751Z,91.03
2022-12-08T17:11:43.264Z,91.05
2022-12-08T17:14:15.257Z,91.00
2022-12-08T17:16:44.036Z,91.03
2022-12-08T17:19:14.983Z,90.82
2022-12-08T17:21:44.110Z,90.71
2022-12-08T17:24:12.319Z,90.70
2022-12-08T17:26:40.725Z,90.71
2022-12-08T17:29:07.535Z,90.68
2022-12-08T17:31:34.365Z,90.70
2022-12-08T17:34:02.725Z,90.84
2022-12-08T17:36:30.725Z,91.04
2022-12-08T17:39:00.094Z,91.25
2022-12-08T17:41:27.897Z,91.48
2022-12-08T17:43:54.933Z,91.56
2022-12-08T17:46:22.549Z,91.55
2022-12-08T17:48:49.957Z,91.58
2022-12-08T17:51:16.939Z,91.67
2022-12-08T17:53:44.204Z,91.57
2022-12-08T17:56:18.163Z,91.73
2022-12-08T17:58:49.853Z,91.74
2022-12-08T18:01:22.950Z,91.74
2022-12-08T18:03:50.092Z,91.85
2022-12-08T18:06:16.984Z,91.72
2022-12-08T18:08:44.325Z,91.81
2022-12-08T18:11:17.748Z,91.77
2022-12-08T18:13:46.916Z,91.88
2022-12-08T18:16:14.641Z,91.97
2022-12-08T18:18:41.829Z,91.87
2022-12-08T18:21:10.047Z,91.81
2022-12-08T18:23:37.623Z,91.76
2022-12-08T18:26:06.211Z,91.72
2022-12-08T18:28:33.220Z,91.59
2022-12-08T18:31:00.862Z,91.54
2022-12-08T18:33:27.816Z,91.45
2022-12-08T18:35:54.729Z,91.28
2022-12-08T18:38:21.529Z,91.11
2022-12-08T18:40:48.319Z,90.93
2022-12-08T18:43:15.146Z,90.69
2022-12-08T18:45:42.001Z,90.69
2022-12-08T18:48:08.722Z,90.46
2022-12-08T18:50:35.496Z,90.40
2022-12-08T18:53:02.291Z,90.19
2022-12-08T18:55:28.998Z,90.10
2022-12-08T18:57:55.859Z,90.07
2022-12-08T19:00:22.803Z,89.89
2022-12-08T19:02:49.670Z,89.88
2022-12-08T19:05:16.840Z,89.81
2022-12-08T19:07:45.098Z,89.74
2022-12-08T19:10:12.323Z,89.67
2022-12-08T19:12:39.368Z,89.66
2022-12-08T19:15:06.802Z,89.85
2022-12-08T19:17:34.545Z,89.91
2022-12-08T19:20:01.408Z,89.98
2022-12-08T19:22:28.263Z,90.04
2022-12-08T19:24:55.264Z,90.18
2022-12-08T19:27:22.752Z,90.21
2022-12-08T19:29:49.524Z,90.37
2022-12-08T19:32:16.279Z,90.25
2022-12-08T19:34:43.227Z,90.30
2022-12-08T19:37:12.636Z,90.50
2022-12-08T19:39:58.437Z,90.72
2022-12-08T19:42:47.218Z,90.77
2022-12-08T19:45:19.216Z,90.82
2022-12-08T19:47:47.902Z,90.79
2022-12-08T19:50:35.202Z,90.85
2022-12-08T19:53:05.210Z,90.53
2022-12-08T19:55:32.703Z,90.17
2022-12-08T19:58:01.297Z,90.28
2022-12-08T20:00:31.008Z,90.28
2022-12-08T20:02:59.383Z,90.54
2022-12-08T20:05:26.367Z,90.84
2022-12-08T20:07:55.167Z,91.19
2022-12-08T20:10:33.998Z,91.62
2022-12-08T20:13:21.829Z,91.96
2022-12-08T20:15:49.370Z,92.08
2022-12-08T20:18:17.058Z,92.36
2022-12-08T20:20:45.786Z,92.62
2022-12-08T20:23:14.374Z,92.78
2022-12-08T20:25:43.893Z,92.94
2022-12-08T20:28:11.048Z,93.06
2022-12-08T20:30:40.279Z,93.28
2022-12-08T20:33:09.440Z,93.42
2022-12-08T20:35:36.119Z,93.65
2022-12-08T20:38:02.927Z,93.80
2022-12-08T20:40:29.745Z,94.07
2022-12-08T20:42:56.508Z,94.27
2022-12-08T20:45:23.258Z,94.44
2022-12-08T20:47:50.227Z,94.48
2022-12-08T20:50:17.014Z,94.71
2022-12-08T20:52:44.239Z,94.84
2022-12-08T20:55:11.201Z,94.89
2022-12-08T20:57:37.987Z,95.09
2022-12-08T21:00:06.715Z,95.24
2022-12-08T21:02:34.205Z,95.32
2022-12-08T21:05:01.208Z,95.33
2022-12-08T21:07:28.159Z,95.34
2022-12-08T21:09:55.071Z,95.36
2022-12-08T21:12:21.903Z,95.41
2022-12-08T21:14:48.655Z,95.66
2022-12-08T21:17:15.542Z,95.79
2022-12-08T21:19:42.482Z,95.97
2022-12-08T21:22:09.277Z,96.11
2022-12-08T21:24:36.728Z,96.16
2022-12-08T21:27:03.615Z,96.27
2022-12-08T21:29:30.749Z,96.28
2022-12-08T21:31:59.638Z,96.34
2022-12-08T21:34:36.456Z,96.46
2022-12-08T21:37:03.432Z,96.63
2022-12-08T21:39:30.523Z,96.69
2022-12-08T21:42:15.934Z,96.90
2022-12-08T21:44:43.311Z,97.03
2022-12-08T21:47:10.927Z,97.04
2022-12-08T21:49:38.221Z,96.96
2022-12-08T21:52:05.261Z,97.05
2022-12-08T21:54:32.200Z,97.15
2022-12-08T21:56:59.031Z,97.16
2022-12-08T21:59:26.237Z,97.36
2022-12-08T22:01:53.195Z,97.50
2022-12-08T22:04:24.790Z,97.69
2022-12-08T22:06:52.336Z,97.81
2022-12-08T22:09:19.408Z,97.84
2022-12-08T22:11:46.615Z,98.01
2022-12-08T22:14:15.182Z,98.08
2022-12-08T22:16:43.374Z,98.07
2022-12-08T22:19:11.711Z,98.05
2022-12-08T22:21:38.805Z,98.19
2022-12-08T22:24:05.882Z,98.25
2022-12-08T22:26:33.081Z,98.43
2022-12-08T22:29:00.413Z,98.51
2022-12-08T22:31:27.849Z,98.73
2022-12-08T22:33:55.424Z,98.63
2022-12-08T22:36:25.045Z,98.84
2022-12-08T22:38:53.479Z,98.82
2022-12-08T22:41:21.176Z,98.98
2022-12-08T22:43:49.437Z,99.19
2022-12-08T22:46:20.719Z,99.26
2022-12-08T22:48:48.538Z,99.29
2022-12-08T22:51:15.824Z,99.31
2022-12-08T22:53:44.565Z,99.67
2022-12-08T22:56:13.358Z,99.74
2022-12-08T22:58:41.349Z,99.79
2022-12-08T23:01:22.161Z,99.82
2022-12-08T23:03:49.575Z,99.95
2022-12-08T23:06:17.236Z,99.99
2022-12-08T23:08:44.781Z,100.00
2022-12-08T23:11:12.282Z,100.00
2022-12-08T23:13:39.962Z,100.00
2022-12-08T23:16:12.640Z,100.00
2022-12-08T23:18:41.787Z,100.00
2022-12-08T23:21:27.538Z,100.00
2022-12-08T23:23:54.784Z,100.00
2022-12-08T23:26:26.217Z,100.00
2022-12-08T23:28:56.420Z,100.00
2022-12-08T23:31:24.994Z,100.00
2022-12-08T23:33:53.371Z,100.00
2022-12-08T23:36:22.001Z,100.00
2022-12-08T23:38:49.007Z,100.00
2022-12-08T23:41:16.146Z,100.00
2022-12-08T23:43:48.846Z,100.00
2022-12-08T23:46:18.644Z,99.96
2022-12-08T23:48:46.029Z,99.85
2022-12-08T23:51:13.229Z,99.90
2022-12-08T23:53:40.175Z,99.98
2022-12-08T23:56:11.679Z,100.00
2022-12-08T23:58:43.256Z,100.00
